createdAt,value
2023-04-11T00:00:45.841Z,100898.09
2023-04-11T00:03:20.366Z,100885.22
2023-04-11T00:05:50.697Z,100885.47
2023-04-11T00:08:21.119Z,100895.38
2023-04-11T00:10:51.338Z,100894.81
2023-04-11T00:13:24.113Z,100893.44
2023-04-11T00:15:56.032Z,100888.84
2023-04-11T00:18:28.857Z,100900.69
2023-04-11T00:20:59.032Z,100888.38
2023-04-11T00:23:29.377Z,100884.59
2023-04-11T00:25:59.593Z,100874.63
2023-04-11T00:28:29.784Z,100878.97
2023-04-11T00:30:59.951Z,100877.06
2023-04-11T00:33:32.838Z,100884.03
2023-04-11T00:36:03.129Z,100880.53
2023-04-11T00:38:33.270Z,100880.25
2023-04-11T00:41:03.634Z,100874.09
2023-04-11T00:43:33.781Z,100875.41
2023-04-11T00:46:04.196Z,100875.97
2023-04-11T00:48:36.986Z,100869.81
2023-04-11T00:51:07.527Z,100870.66
2023-04-11T00:53:39.165Z,100880.59
2023-04-11T00:56:10.279Z,100885.16
2023-04-11T00:58:40.799Z,100883.53
2023-04-11T01:01:12.107Z,100885.66
2023-04-11T01:03:48.539Z,100875.47
2023-04-11T01:06:22.990Z,100870.91
2023-04-11T01:08:53.779Z,100877.34
2023-04-11T01:11:24.413Z,100862.56
2023-04-11T01:13:55.752Z,100883.00
2023-04-11T01:16:25.969Z,100884.84
2023-04-11T01:18:59.208Z,100881.09
2023-04-11T01:21:30.223Z,100877.34
2023-04-11T01:24:03.992Z,100872.25
2023-04-11T01:26:34.200Z,100877.06
2023-04-11T01:29:05.654Z,100871.69
2023-04-11T01:31:35.956Z,100870.09
2023-04-11T01:34:07.711Z,100864.47
2023-04-11T01:36:38.344Z,100854.78
2023-04-11T01:39:11.437Z,100861.53
2023-04-11T01:41:42.678Z,100866.91
2023-04-11T01:44:13.001Z,100861.81
2023-04-11T01:46:43.322Z,100863.69
2023-04-11T01:49:15.689Z,100862.06
2023-04-11T01:51:46.142Z,100859.63
2023-04-11T01:54:19.216Z,100863.16
2023-04-11T01:56:49.728Z,100834.94
2023-04-11T01:59:20.118Z,100870.16
2023-04-11T02:01:50.540Z,100858.34
2023-04-11T02:04:20.867Z,100851.66
2023-04-11T02:06:51.055Z,100832.56
2023-04-11T02:09:25.237Z,100847.63
2023-04-11T02:11:57.311Z,100838.78
2023-04-11T02:14:30.188Z,100833.66
2023-04-11T02:17:00.790Z,100839.84
2023-04-11T02:19:31.359Z,100824.00
2023-04-11T02:22:02.175Z,100825.91
2023-04-11T02:24:35.028Z,100831.28
2023-04-11T02:27:05.914Z,100807.34
2023-04-11T02:29:37.208Z,100818.13
2023-04-11T02:32:07.528Z,100820.78
2023-04-11T02:34:37.863Z,100811.94
2023-04-11T02:37:08.088Z,100809.22
2023-04-11T02:39:40.980Z,100819.16
2023-04-11T02:42:11.398Z,100809.22
2023-04-11T02:44:41.626Z,100806.78
2023-04-11T02:47:11.984Z,100794.47
2023-04-11T02:49:44.210Z,100807.59
2023-04-11T02:52:19.281Z,100794.97
2023-04-11T02:54:52.091Z,100792.59
2023-04-11T02:57:22.258Z,100757.38
2023-04-11T02:59:52.548Z,100785.03
2023-04-11T03:02:30.453Z,100773.50
2023-04-11T03:05:04.367Z,100788.78
2023-04-11T03:07:38.770Z,100784.22
2023-04-11T03:10:12.592Z,100785.25
2023-04-11T03:12:43.159Z,100775.56
2023-04-11T03:15:15.734Z,100781.47
2023-04-11T03:17:45.754Z,100785.13
2023-04-11T03:20:19.958Z,100772.50
2023-04-11T03:22:53.747Z,100771.13
2023-04-11T03:25:28.411Z,100772.72
2023-04-11T03:27:59.146Z,100759.78
2023-04-11T03:30:29.601Z,100762.75
2023-04-11T03:33:01.437Z,100761.66
2023-04-11T03:35:33.168Z,100752.78
2023-04-11T03:38:03.525Z,100748.47
2023-04-11T03:40:36.700Z,100752.53
2023-04-11T03:43:14.615Z,100753.03
2023-04-11T03:45:44.858Z,100753.31
2023-04-11T03:48:26.744Z,100754.66
2023-04-11T03:51:02.273Z,100749.56
2023-04-11T03:53:40.896Z,100755.97
2023-04-11T03:56:27.202Z,100751.16
2023-04-11T03:58:57.846Z,100748.19
2023-04-11T04:01:32.334Z,100750.88
2023-04-11T04:04:06.699Z,100723.16
2023-04-11T04:06:40.472Z,100754.88
2023-04-11T04:09:11.460Z,100754.31
2023-04-11T04:12:02.004Z,100758.63
2023-04-11T04:14:49.121Z,100755.66
2023-04-11T04:17:20.960Z,100763.66
2023-04-11T04:19:51.984Z,100752.56
2023-04-11T04:22:24.032Z,100770.06
2023-04-11T04:24:58.583Z,100763.59
2023-04-11T04:27:34.669Z,100755.56
2023-04-11T04:30:05.811Z,100755.84
2023-04-11T04:32:49.132Z,100769.25
2023-04-11T04:35:19.527Z,100744.28
2023-04-11T04:37:50.304Z,100727.38
2023-04-11T04:40:55.089Z,100760.44
2023-04-11T04:43:32.582Z,100754.28
2023-04-11T04:46:23.864Z,100760.16
2023-04-11T04:48:56.965Z,100766.56
2023-04-11T04:51:30.448Z,100780.00
2023-04-11T04:54:00.691Z,100779.72
2023-04-11T04:56:33.278Z,100779.19
2023-04-11T04:59:06.333Z,100777.59
2023-04-11T05:01:40.361Z,100769.03
2023-04-11T05:04:14.228Z,100779.22
2023-04-11T05:06:55.768Z,100770.13
2023-04-11T05:09:26.649Z,100789.75
2023-04-11T05:12:06.710Z,100783.84
2023-04-11T05:14:42.439Z,100781.47
2023-04-11T05:17:13.021Z,100787.09
2023-04-11T05:19:44.109Z,100772.09
2023-04-11T05:22:17.063Z,100782.06
2023-04-11T05:24:52.073Z,100767.81
2023-04-11T05:27:22.319Z,100770.53
2023-04-11T05:29:55.476Z,100780.75
2023-04-11T05:32:26.098Z,100792.56
2023-04-11T05:34:59.257Z,100786.69
2023-04-11T05:37:38.790Z,100773.78
2023-04-11T05:40:11.857Z,100785.63
2023-04-11T05:42:42.550Z,100792.06
2023-04-11T05:45:15.816Z,100789.38
2023-04-11T05:47:46.588Z,100792.06
2023-04-11T05:50:17.717Z,100799.34
2023-04-11T05:52:47.638Z,100797.44
2023-04-11T05:55:18.340Z,100797.19
2023-04-11T05:57:48.593Z,100762.03
2023-04-11T06:00:24.457Z,100781.19
2023-04-11T06:02:55.343Z,100783.66
2023-04-11T06:05:25.687Z,100792.53
2023-04-11T06:07:56.203Z,100790.91
2023-04-11T06:10:26.593Z,100787.44
2023-04-11T06:12:57.353Z,100760.56
2023-04-11T06:15:30.666Z,100786.94
2023-04-11T06:18:01.002Z,100790.97
2023-04-11T06:20:31.462Z,100796.13
2023-04-11T06:23:02.208Z,100791.31
2023-04-11T06:25:32.618Z,100786.47
2023-04-11T06:28:02.794Z,100783.81
2023-04-11T06:30:36.092Z,100775.22
2023-04-11T06:33:06.349Z,100780.59
2023-04-11T06:35:36.977Z,100776.81
2023-04-11T06:38:07.551Z,100782.22
2023-04-11T06:40:39.141Z,100779.25
2023-04-11T06:43:09.553Z,100780.06
2023-04-11T06:45:42.890Z,100772.25
2023-04-11T06:48:13.117Z,100758.03
2023-04-11T06:50:43.408Z,100765.81
2023-04-11T06:53:13.689Z,100767.72
2023-04-11T06:55:43.817Z,100771.75
2023-04-11T06:58:14.054Z,100773.63
2023-04-11T07:00:47.170Z,100769.31
2023-04-11T07:03:17.535Z,100748.88
2023-04-11T07:05:51.012Z,100770.09
2023-04-11T07:08:21.759Z,100773.88
2023-04-11T07:10:54.020Z,100765.78
2023-04-11T07:13:24.780Z,100767.94
2023-04-11T07:15:58.666Z,100759.81
2023-04-11T07:18:29.010Z,100767.59
2023-04-11T07:20:59.244Z,100751.44
2023-04-11T07:23:29.434Z,100762.16
2023-04-11T07:25:59.628Z,100759.69
2023-04-11T07:28:31.512Z,100753.47
2023-04-11T07:31:04.340Z,100763.66
2023-04-11T07:33:34.697Z,100755.34
2023-04-11T07:36:05.042Z,100757.25
2023-04-11T07:38:37.868Z,100760.44
2023-04-11T07:41:09.024Z,100750.94
2023-04-11T07:43:39.527Z,100754.97
2023-04-11T07:46:12.618Z,100749.28
2023-04-11T07:48:42.919Z,100738.19
2023-04-11T07:51:13.056Z,100714.66
2023-04-11T07:53:43.232Z,100737.72
2023-04-11T07:56:14.153Z,100732.84
2023-04-11T07:58:44.617Z,100735.97
2023-04-11T08:01:27.215Z,100727.22
2023-04-11T08:04:00.105Z,100729.28
2023-04-11T08:06:31.978Z,100725.50
2023-04-11T08:09:02.266Z,100719.38
2023-04-11T08:11:32.904Z,100683.28
2023-04-11T08:14:03.563Z,100713.72
2023-04-11T08:16:37.841Z,100709.72
2023-04-11T08:19:08.078Z,100704.72
2023-04-11T08:21:38.291Z,100691.28
2023-04-11T08:24:08.870Z,100695.88
2023-04-11T08:26:39.692Z,100696.91
2023-04-11T08:29:11.530Z,100693.56
2023-04-11T08:31:45.957Z,100699.81
2023-04-11T08:34:17.600Z,100690.44
2023-04-11T08:36:47.814Z,100697.44
2023-04-11T08:39:17.990Z,100678.25
2023-04-11T08:41:48.375Z,100695.84
2023-04-11T08:44:18.816Z,100683.75
2023-04-11T08:46:51.786Z,100684.06
2023-04-11T08:49:22.103Z,100683.94
2023-04-11T08:51:56.878Z,100677.38
2023-04-11T08:54:27.836Z,100683.38
2023-04-11T08:56:58.788Z,100683.69
2023-04-11T08:59:28.719Z,100678.56
2023-04-11T09:02:10.094Z,100666.59
2023-04-11T09:04:44.916Z,100660.09
2023-04-11T09:07:16.082Z,100637.78
2023-04-11T09:09:46.349Z,100649.84
2023-04-11T09:12:17.466Z,100653.50
2023-04-11T09:14:47.878Z,100644.88
2023-04-11T09:17:20.727Z,100625.28
2023-04-11T09:19:51.033Z,100636.50
2023-04-11T09:22:21.460Z,100633.88
2023-04-11T09:25:05.397Z,100626.50
2023-04-11T09:27:35.785Z,100619.16
2023-04-11T09:30:06.109Z,100615.41
2023-04-11T09:32:39.199Z,100627.81
2023-04-11T09:35:15.939Z,100604.50
2023-04-11T09:37:47.975Z,100632.84
2023-04-11T09:40:21.255Z,100625.66
2023-04-11T09:42:53.052Z,100621.06
2023-04-11T09:45:24.809Z,100612.44
2023-04-11T09:47:59.516Z,100612.16
2023-04-11T09:50:32.599Z,100586.41
2023-04-11T09:53:03.251Z,100600.44
2023-04-11T09:55:33.740Z,100589.25
2023-04-11T09:58:04.289Z,100572.59
2023-04-11T10:00:35.600Z,100588.50
2023-04-11T10:03:09.240Z,100589.44
2023-04-11T10:05:41.384Z,100588.63
2023-04-11T10:08:17.593Z,100582.03
2023-04-11T10:10:50.995Z,100573.81
2023-04-11T10:13:42.997Z,100571.59
2023-04-11T10:16:15.653Z,100573.59
2023-04-11T10:19:28.290Z,100567.50
2023-04-11T10:22:01.415Z,100563.69
2023-04-11T10:24:31.670Z,100579.31
2023-04-11T10:27:04.421Z,100543.50
2023-04-11T10:29:51.837Z,100565.88
2023-04-11T10:32:24.412Z,100560.03
2023-04-11T10:35:31.141Z,100555.19
2023-04-11T10:38:03.900Z,100553.41
2023-04-11T10:40:34.140Z,100535.06
2023-04-11T10:43:23.664Z,100537.72
2023-04-11T10:46:23.508Z,100538.69
2023-04-11T10:49:00.969Z,100530.81
2023-04-11T10:51:32.313Z,100527.94
2023-04-11T10:54:06.390Z,100533.88
2023-04-11T10:56:57.826Z,100515.69
2023-04-11T11:00:12.873Z,100514.63
2023-04-11T11:02:45.895Z,100525.47
2023-04-11T11:05:23.629Z,100523.03
2023-04-11T11:07:56.221Z,100520.56
2023-04-11T11:10:43.913Z,100506.53
2023-04-11T11:13:14.080Z,100503.03
2023-04-11T11:15:51.473Z,100470.56
2023-04-11T11:18:22.348Z,100501.44
2023-04-11T11:20:58.402Z,100497.38
2023-04-11T11:23:28.715Z,100489.97
2023-04-11T11:26:03.077Z,100490.44
2023-04-11T11:28:33.289Z,100497.47
2023-04-11T11:31:04.316Z,100490.56
2023-04-11T11:33:36.599Z,100481.94
2023-04-11T11:36:07.777Z,100483.41
2023-04-11T11:38:39.326Z,100489.31
2023-04-11T11:41:13.091Z,100473.88
2023-04-11T11:43:43.608Z,100481.00
2023-04-11T11:46:17.853Z,100482.09
2023-04-11T11:49:02.336Z,100474.22
2023-04-11T11:51:43.918Z,100447.88
2023-04-11T11:54:15.161Z,100462.50
2023-04-11T11:56:54.523Z,100461.66
2023-04-11T11:59:30.445Z,100452.50
2023-04-11T12:02:00.994Z,100453.84
2023-04-11T12:04:31.521Z,100443.78
2023-04-11T12:07:11.466Z,100441.91
2023-04-11T12:09:43.429Z,100436.66
2023-04-11T12:12:18.899Z,100434.41
2023-04-11T12:14:56.358Z,100441.72
2023-04-11T12:17:26.582Z,100415.88
2023-04-11T12:19:59.381Z,100427.81
2023-04-11T12:22:29.804Z,100414.78
2023-04-11T12:25:08.234Z,100407.66
2023-04-11T12:27:41.846Z,100418.06
2023-04-11T12:30:13.573Z,100409.91
2023-04-11T12:32:44.025Z,100404.03
2023-04-11T12:35:17.519Z,100399.06
2023-04-11T12:37:48.155Z,100399.06
2023-04-11T12:40:18.447Z,100377.31
2023-04-11T12:42:56.458Z,100396.34
2023-04-11T12:45:28.171Z,100377.25
2023-04-11T12:47:58.371Z,100373.28
2023-04-11T12:50:28.595Z,100375.53
2023-04-11T12:52:58.810Z,100374.88
2023-04-11T12:55:30.195Z,100358.47
2023-04-11T12:58:03.098Z,100366.91
2023-04-11T13:00:33.897Z,100368.34
2023-04-11T13:03:05.028Z,100361.47
2023-04-11T13:05:37.452Z,100344.59
2023-04-11T13:08:10.080Z,100347.97
2023-04-11T13:10:41.134Z,100335.22
2023-04-11T13:15:48.027Z,100333.88
2023-04-11T13:18:18.609Z,100329.75
2023-04-11T13:20:49.116Z,100320.69
2023-04-11T13:23:19.546Z,100313.69
2023-04-11T13:25:49.826Z,100318.94
2023-04-11T13:28:22.712Z,100313.03
2023-04-11T13:30:53.306Z,100309.94
2023-04-11T13:33:23.869Z,100313.81
2023-04-11T13:35:54.081Z,100305.47
2023-04-11T13:38:24.264Z,100301.78
2023-04-11T13:40:54.593Z,100303.91
2023-04-11T13:43:28.307Z,100295.50
2023-04-11T13:45:58.844Z,100299.34
2023-04-11T13:48:29.322Z,100287.69
2023-04-11T13:51:00.255Z,100289.66
2023-04-11T13:53:30.898Z,100285.56
2023-04-11T13:56:01.182Z,100286.81
2023-04-11T13:58:35.105Z,100284.19
2023-04-11T14:01:05.747Z,100287.97
2023-04-11T14:03:36.646Z,100283.81
2023-04-11T14:06:09.169Z,100284.13
2023-04-11T14:08:39.995Z,100272.34
2023-04-11T14:11:11.055Z,100291.16
2023-04-11T14:13:43.820Z,100295.59
2023-04-11T14:16:14.698Z,100289.56
2023-04-11T14:18:45.570Z,100287.78
2023-04-11T14:21:15.831Z,100274.06
2023-04-11T14:23:46.167Z,100287.47
2023-04-11T14:26:16.355Z,100288.75
2023-04-11T14:28:49.114Z,100293.69
2023-04-11T14:31:19.315Z,100283.47
2023-04-11T14:33:49.600Z,100283.31
2023-04-11T14:36:19.772Z,100277.25
2023-04-11T14:38:50.012Z,100258.28
2023-04-11T14:41:20.823Z,100280.00
2023-04-11T14:43:53.605Z,100270.91
2023-04-11T14:46:23.854Z,100276.94
2023-04-11T14:48:54.305Z,100280.31
2023-04-11T14:51:27.380Z,100278.03
2023-04-11T14:53:59.973Z,100274.22
2023-04-11T14:56:30.956Z,100278.22
2023-04-11T14:59:06.840Z,100276.00
2023-04-11T15:01:37.122Z,100264.03
2023-04-11T15:04:07.717Z,100261.94
2023-04-11T15:06:38.284Z,100275.19
2023-04-11T15:09:09.113Z,100281.72
2023-04-11T15:11:39.652Z,100271.00
2023-04-11T15:14:12.419Z,100271.81
2023-04-11T15:16:42.655Z,100273.41
2023-04-11T15:19:12.892Z,100260.66
2023-04-11T15:21:43.070Z,100265.16
2023-04-11T15:24:13.559Z,100256.53
2023-04-11T15:26:47.072Z,100269.91
2023-04-11T15:29:20.273Z,100267.22
2023-04-11T15:31:50.507Z,100260.28
2023-04-11T15:34:23.541Z,100269.47
2023-04-11T15:36:53.808Z,100256.41
2023-04-11T15:39:24.236Z,100253.50
2023-04-11T15:41:54.452Z,100248.97
2023-04-11T15:44:28.510Z,100249.75
2023-04-11T15:46:58.947Z,100231.06
2023-04-11T15:49:29.210Z,100248.34
2023-04-11T15:51:59.789Z,100236.38
2023-04-11T15:54:29.994Z,100240.66
2023-04-11T15:57:00.191Z,100235.63
2023-04-11T15:59:33.682Z,100237.97
2023-04-11T16:02:03.959Z,100235.59
2023-04-11T16:04:34.416Z,100235.28
2023-04-11T16:07:05.984Z,100208.50
2023-04-11T16:09:36.188Z,100228.69
2023-04-11T16:12:07.606Z,100227.31
2023-04-11T16:14:40.289Z,100223.47
2023-04-11T16:17:10.648Z,100220.00
2023-04-11T16:19:41.640Z,100227.13
2023-04-11T16:22:11.566Z,100215.50
2023-04-11T16:24:41.820Z,100216.66
2023-04-11T16:27:12.090Z,100227.50
2023-04-11T16:29:45.022Z,100214.09
2023-04-11T16:32:15.343Z,100207.25
2023-04-11T16:34:45.817Z,100213.91
2023-04-11T16:37:16.513Z,100205.44
2023-04-11T16:39:46.823Z,100206.66
2023-04-11T16:42:17.242Z,100203.28
2023-04-11T16:44:50.001Z,100200.06
2023-04-11T16:47:20.703Z,100198.78
2023-04-11T16:49:51.010Z,100206.41
2023-04-11T16:52:21.639Z,100207.84
2023-04-11T16:54:52.011Z,100196.72
2023-04-11T16:57:22.471Z,100205.13
2023-04-11T16:59:55.269Z,100209.00
2023-04-11T17:02:25.693Z,100206.59
2023-04-11T17:04:56.197Z,100194.84
2023-04-11T17:07:28.671Z,100212.84
2023-04-11T17:09:58.828Z,100208.06
2023-04-11T17:12:29.175Z,100211.75
2023-04-11T17:15:03.204Z,100209.22
2023-04-11T17:20:25.828Z,100191.88
2023-04-11T17:23:05.805Z,100193.31
2023-04-11T17:25:40.526Z,100194.75
2023-04-11T17:28:16.999Z,100198.56
2023-04-11T17:30:54.529Z,100201.13
2023-04-11T17:33:28.476Z,100203.53
2023-04-11T17:36:06.872Z,100200.19
2023-04-11T17:38:49.228Z,100208.47
2023-04-11T17:41:39.265Z,100203.25
2023-04-11T17:47:18.827Z,100201.97
2023-04-11T17:49:58.135Z,100206.91
2023-04-11T17:52:29.093Z,100197.34
2023-04-11T17:55:03.801Z,100208.03
2023-04-11T17:57:40.088Z,100211.19
2023-04-11T18:00:30.602Z,100203.38
2023-04-11T18:03:12.781Z,100211.63
2023-04-11T18:06:15.167Z,100216.44
2023-04-11T18:09:00.634Z,100218.50
2023-04-11T18:11:43.163Z,100223.09
2023-04-11T18:14:23.213Z,100216.88
2023-04-11T18:17:04.426Z,100217.22
2023-04-11T18:19:46.242Z,100221.81
2023-04-11T18:22:17.414Z,100197.56
2023-04-11T18:24:52.822Z,100225.13
2023-04-11T18:27:29.776Z,100221.13
2023-04-11T18:30:09.246Z,100196.13
2023-04-11T18:32:51.093Z,100225.25
2023-04-11T18:35:32.919Z,100221.22
2023-04-11T18:38:12.068Z,100227.94
2023-04-11T18:40:55.420Z,100228.22
2023-04-11T18:43:40.620Z,100225.38
2023-04-11T18:46:15.231Z,100225.50
2023-04-11T18:48:51.134Z,100224.84
2023-04-11T18:51:27.496Z,100209.03
2023-04-11T18:54:03.593Z,100220.69
2023-04-11T18:56:40.546Z,100214.94
2023-04-11T18:59:15.836Z,100210.34
2023-04-11T19:01:51.927Z,100220.81
2023-04-11T19:04:26.351Z,100224.94
2023-04-11T19:07:04.124Z,100205.19
2023-04-11T19:09:51.022Z,100218.56
2023-04-11T19:12:27.598Z,100209.59
2023-04-11T19:15:06.075Z,100214.94
2023-04-11T19:17:52.847Z,100214.09
2023-04-11T19:20:33.267Z,100210.53
2023-04-11T19:23:18.382Z,100203.94
2023-04-11T19:25:58.294Z,100200.38
2023-04-11T19:28:35.366Z,100202.72
2023-04-11T19:31:05.688Z,100206.50
2023-04-11T19:33:40.101Z,100187.00
2023-04-11T19:36:19.979Z,100199.78
2023-04-11T19:39:14.449Z,100205.28
2023-04-11T19:42:13.428Z,100202.34
2023-04-11T19:44:52.166Z,100208.81
2023-04-11T19:47:30.050Z,100208.34
2023-04-11T19:50:07.681Z,100208.97
2023-04-11T19:52:45.858Z,100188.91
2023-04-11T19:55:32.411Z,100213.88
2023-04-11T19:58:07.067Z,100216.28
2023-04-11T20:00:45.608Z,100216.00
2023-04-11T20:03:23.426Z,100225.31
2023-04-11T20:06:05.830Z,100233.88
2023-04-11T20:08:43.253Z,100236.84
2023-04-11T20:11:23.434Z,100232.06
2023-04-11T20:13:59.964Z,100235.75
2023-04-11T20:16:40.792Z,100227.66
2023-04-11T20:19:15.575Z,100226.56
2023-04-11T20:21:51.006Z,100227.03
2023-04-11T20:24:26.407Z,100229.25
2023-04-11T20:27:02.398Z,100224.53
2023-04-11T20:29:39.368Z,100232.38
2023-04-11T20:32:12.947Z,100228.44
2023-04-11T20:34:58.629Z,100232.84
2023-04-11T20:37:36.784Z,100216.13
2023-04-11T20:40:14.779Z,100237.09
2023-04-11T20:42:58.560Z,100225.38
2023-04-11T20:45:36.365Z,100226.19
2023-04-11T20:48:13.891Z,100223.19
2023-04-11T20:50:48.977Z,100228.66
2023-04-11T20:53:28.388Z,100225.38
2023-04-11T20:56:06.558Z,100229.53
2023-04-11T20:58:56.978Z,100210.09
2023-04-11T21:01:38.447Z,100238.53
2023-04-11T21:04:19.775Z,100233.44
2023-04-11T21:06:55.404Z,100233.94
2023-04-11T21:09:31.940Z,100238.97
2023-04-11T21:12:13.533Z,100232.91
2023-04-11T21:14:54.124Z,100241.44
2023-04-11T21:17:31.572Z,100246.47
2023-04-11T21:20:12.502Z,100243.47
2023-04-11T21:22:45.529Z,100251.69
2023-04-11T21:25:24.489Z,100256.22
2023-04-11T21:28:00.573Z,100261.06
2023-04-11T21:30:36.902Z,100259.81
2023-04-11T21:33:12.349Z,100252.56
2023-04-11T21:35:52.405Z,100269.63
2023-04-11T21:38:31.991Z,100268.13
2023-04-11T21:41:03.223Z,100262.53
2023-04-11T21:43:40.319Z,100262.09
2023-04-11T21:46:21.659Z,100259.88
2023-04-11T21:48:59.048Z,100268.19
2023-04-11T21:51:36.361Z,100268.81
2023-04-11T21:54:12.282Z,100265.06
2023-04-11T21:56:47.099Z,100275.53
2023-04-11T21:59:19.747Z,100270.88
2023-04-11T22:01:59.261Z,100277.91
2023-04-11T22:04:51.306Z,100284.25
2023-04-11T22:07:48.159Z,100282.44
2023-04-11T22:10:41.114Z,100274.63
2023-04-11T22:13:21.413Z,100274.25
2023-04-11T22:16:05.682Z,100275.53
2023-04-11T22:18:53.670Z,100274.53
2023-04-11T22:21:29.662Z,100274.25
2023-04-11T22:24:10.866Z,100278.97
2023-04-11T22:26:58.484Z,100280.34
2023-04-11T22:29:36.826Z,100275.91
2023-04-11T22:32:10.896Z,100279.16
2023-04-11T22:34:45.223Z,100282.22
2023-04-11T22:37:34.129Z,100284.97
2023-04-11T22:40:07.797Z,100289.25
2023-04-11T22:42:47.167Z,100285.31
2023-04-11T22:45:22.153Z,100294.63
2023-04-11T22:48:08.962Z,100294.06
2023-04-11T22:51:00.198Z,100301.69
2023-04-11T22:53:37.761Z,100307.50
2023-04-11T22:56:15.526Z,100301.03
2023-04-11T22:58:57.551Z,100316.44
2023-04-11T23:01:30.987Z,100310.81
2023-04-11T23:04:13.509Z,100303.28
2023-04-11T23:06:51.226Z,100317.81
2023-04-11T23:09:27.657Z,100301.56
2023-04-11T23:12:19.978Z,100314.03
2023-04-11T23:15:05.667Z,100313.50
2023-04-11T23:17:48.306Z,100307.75
2023-04-11T23:20:22.602Z,100315.13
2023-04-11T23:23:07.911Z,100317.22
2023-04-11T23:25:50.784Z,100317.38
2023-04-11T23:28:28.338Z,100319.53
2023-04-11T23:31:01.371Z,100307.28
2023-04-11T23:33:34.630Z,100308.78
2023-04-11T23:36:08.042Z,100304.31
2023-04-11T23:38:42.503Z,100303.50
2023-04-11T23:41:19.781Z,100307.97
2023-04-11T23:43:58.201Z,100309.94
2023-04-11T23:46:37.501Z,100311.72
2023-04-11T23:49:14.101Z,100292.69
2023-04-11T23:51:57.701Z,100298.44
2023-04-11T23:54:32.698Z,100289.19
2023-04-11T23:57:12.213Z,100280.91
2023-04-11T23:59:48.617Z,100279.94
